map of POL home
POL - Airport
Location
City:  Pemba, Cabo Delgado, Mozambique
Near (Alt.):Porto Amelia
Name:Pemba Airport
ICAO:FQPB
IATA:POL

Details
Type:Airport (Aerodrome, Airfield)
Use:Public/Civil
Latitude:1259'12"S (-12.986752)
Longitude:4031'21"E (40.522492)
Datum:WGS 1984
Elevation:331 ft (101 m)
Variation:6.73W (WMM2015 magnetic declination)
-0.03 annual change
Runways:2
Longest:5905 × 148 ft (1800 × 45 m), paved

Time
Time Zone:UTC+2
Local Time:

Weather
METAR:FQPB 212200Z 20014KT 9999 FEW020 24/18 Q1019

Related Locations
Nearby:
Farthest:ITO: 11314 mi / 18208 km
Hilo [Hilo Intl], Hawaii, HI, US

Find:

   beyond  
but within

Other Information
Maps:
NOTAMs:
Links:
Sources:

  
  • flag of Mozambique
  

Sectional Chart

Flight Planning
at skyvector.com

Satellite Image

Google Maps Satellite view

 

Copyright © 2004-2018 Karl L. Swartz. All rights reserved.
The Great Circle Mapper name and logo are trademarks of the Great Circle Mapper.
All other trademarks mentioned herein belong to their respective owners.
Please see credits for attibutions and further copyright information.

  Follow gcmap on Facebook Follow gcmap on Twitter Follow gcmap on Google+ GCmap on LinkedIn

hCard Microformat

Geo Microformat